Time;durP1;ratioP1;P1;durP2;ratioP2;P2;SDS_P1;SDS_P2;PMS_P1;PMS_P2;Temp;Humidity;BMP_temperature;BMP_pressure;BME280_temperature;BME280_humidity;BME280_pressure;Samples;Min_cycle;Max_cycle;Signal;HPM_P1;HPM_P2
2021/11/10 00:01:38;;;;;;;;;47.50;37.75;;;;;7.07;73.15;101617.09;5014071;28;45408;-66
2021/11/10 00:04:04;;;;;;;;;43.25;35.25;;;;;7.06;72.78;101614.50;5013827;28;45514;-66
2021/11/10 00:06:29;;;;;;;;;52.75;43.50;;;;;7.03;73.26;101607.53;5013957;28;45390;-66
2021/11/10 00:08:55;;;;;;;;;43.50;35.00;;;;;6.99;73.51;101598.88;5014321;28;45315;-66
2021/11/10 00:11:20;;;;;;;;;50.00;40.50;;;;;6.99;73.14;101608.44;5015125;28;45223;-64
2021/11/10 00:13:46;;;;;;;;;39.50;34.75;;;;;6.99;74.17;101608.44;5014372;28;45285;-65
2021/11/10 00:16:12;;;;;;;;;45.75;36.00;;;;;6.97;73.14;101591.91;5016994;28;45172;-64
2021/11/10 00:18:38;;;;;;;;;44.50;35.50;;;;;6.95;73.98;101593.66;5014881;28;45343;-63
2021/11/10 00:21:03;;;;;;;;;42.50;34.75;;;;;6.92;73.50;101596.31;5017785;27;45347;-64
2021/11/10 00:23:29;;;;;;;;;40.50;34.00;;;;;6.89;73.29;101593.72;5021582;28;45263;-65
2021/11/10 00:25:55;;;;;;;;;44.25;37.00;;;;;6.82;73.82;101585.94;5018608;28;45483;-67
2021/11/10 00:28:20;;;;;;;;;43.75;37.75;;;;;6.81;74.02;101586.81;5019461;28;45442;-66
2021/11/10 00:30:45;;;;;;;;;44.25;36.75;;;;;6.79;74.23;101572.88;5015946;28;45594;-65
2021/11/10 00:33:11;;;;;;;;;46.25;37.00;;;;;6.69;74.80;101542.47;5014779;28;46101;-66
2021/11/10 00:35:37;;;;;;;;;46.75;38.25;;;;;6.74;74.00;101572.06;5013455;28;45270;-65
2021/11/10 00:38:02;;;;;;;;;36.75;32.00;;;;;6.70;73.52;101578.19;5016427;28;45437;-64
2021/11/10 00:40:28;;;;;;;;;49.75;37.00;;;;;6.68;74.25;101579.94;5016553;28;45337;-66
2021/11/10 00:42:53;;;;;;;;;52.75;38.00;;;;;6.62;74.71;101588.69;5016593;28;45301;-65
2021/11/10 00:45:19;;;;;;;;;48.50;38.00;;;;;6.62;74.73;101580.84;5018039;28;45399;-66
2021/11/10 00:47:45;;;;;;;;;52.75;43.25;;;;;6.53;74.56;101565.22;5022249;28;45240;-66
2021/11/10 00:50:10;;;;;;;;;54.00;41.75;;;;;6.57;74.31;101577.41;5021293;28;45231;-65
2021/11/10 00:52:36;;;;;;;;;46.50;38.00;;;;;6.53;74.33;101573.97;5016580;28;46187;-64
2021/11/10 00:55:03;;;;;;;;;50.50;40.00;;;;;6.52;75.14;101571.34;5016001;28;45389;-64
2021/11/10 00:57:28;;;;;;;;;48.00;37.25;;;;;6.45;75.07;101553.97;5018582;27;45410;-66
2021/11/10 00:59:54;;;;;;;;;52.50;38.00;;;;;6.49;75.08;101567.03;5018359;28;45213;-65
2021/11/10 01:02:19;;;;;;;;;48.00;41.00;;;;;6.39;74.89;101549.66;5019659;28;45982;-65
2021/11/10 01:04:44;;;;;;;;;46.50;40.25;;;;;6.40;74.98;101548.78;5016485;28;45454;-64
2021/11/10 01:07:10;;;;;;;;;45.75;38.25;;;;;6.38;75.41;101540.09;5016099;28;45349;-63
2021/11/10 01:09:41;;;;;;;;;46.50;37.25;;;;;6.38;75.04;101534.88;5016337;28;45555;-65
2021/11/10 01:12:09;;;;;;;;;52.50;40.75;;;;;6.35;75.65;101527.91;5016067;28;46033;-65
2021/11/10 01:14:34;;;;;;;;;46.75;37.75;;;;;6.34;75.36;101530.50;5016774;28;45516;-64
2021/11/10 01:17:00;;;;;;;;;52.25;42.75;;;;;6.35;75.33;101533.13;5026652;28;45406;-66
2021/11/10 01:19:25;;;;;;;;;56.75;44.25;;;;;6.26;76.05;101523.59;5025773;28;45283;-63
2021/11/10 01:21:50;;;;;;;;;55.75;44.00;;;;;6.32;76.19;101533.16;5021853;28;46015;-65
2021/11/10 01:24:16;;;;;;;;;59.75;45.00;;;;;6.19;76.25;101510.59;5016239;28;45440;-64
2021/11/10 01:26:41;;;;;;;;;62.25;48.00;;;;;6.28;76.66;101532.28;5015858;28;45444;-65
2021/11/10 01:29:07;;;;;;;;;61.25;47.50;;;;;6.26;76.52;101538.41;5016106;28;45714;-66
2021/11/10 01:31:32;;;;;;;;;61.25;50.00;;;;;6.23;76.27;101544.53;5015771;28;45328;-65
2021/11/10 01:33:57;;;;;;;;;64.00;49.25;;;;;6.20;77.15;101539.31;5016418;28;45350;-64
2021/11/10 01:36:23;;;;;;;;;63.25;49.75;;;;;6.14;76.72;101532.41;5016287;28;45435;-65
2021/11/10 01:38:48;;;;;;;;;61.25;48.50;;;;;6.13;76.66;101533.28;5016352;28;45633;-65
2021/11/10 01:41:14;;;;;;;;;61.50;47.75;;;;;6.10;77.39;101528.06;5016166;28;45423;-67
2021/11/10 01:43:40;;;;;;;;;60.25;49.50;;;;;6.09;77.41;101541.13;5018758;28;45229;-64
2021/11/10 01:46:05;;;;;;;;;57.75;47.25;;;;;6.01;76.87;101533.34;5017947;28;45371;-66
2021/11/10 01:48:31;;;;;;;;;60.50;48.25;;;;;5.81;77.27;101509.94;5014306;28;45384;-65
2021/11/10 01:50:56;;;;;;;;;59.00;47.00;;;;;5.97;77.04;101531.59;5015550;28;45361;-66
2021/11/10 01:53:22;;;;;;;;;61.25;48.25;;;;;5.96;77.23;101527.25;5018439;28;45301;-67
2021/11/10 01:55:47;;;;;;;;;58.75;45.25;;;;;5.92;77.05;101521.16;5020115;28;45168;-66
2021/11/10 01:58:13;;;;;;;;;57.75;45.00;;;;;5.93;77.57;101537.72;5016048;27;45221;-66
2021/11/10 02:00:41;;;;;;;;;58.25;48.00;;;;;5.83;77.89;101529.94;5015097;28;45978;-67
2021/11/10 02:03:07;;;;;;;;;61.50;48.25;;;;;5.86;78.12;101539.50;5015240;28;45531;-66
2021/11/10 02:05:33;;;;;;;;;59.50;48.25;;;;;5.79;78.34;101533.41;5016248;28;45356;-64
2021/11/10 02:07:58;;;;;;;;;63.50;49.00;;;;;5.84;77.89;101546.47;5014491;28;45287;-65
2021/11/10 02:10:25;;;;;;;;;54.75;44.00;;;;;5.82;77.64;101545.59;5014355;28;47303;-66
2021/11/10 02:12:55;;;;;;;;;63.00;48.25;;;;;5.76;78.22;101537.78;5018359;28;45427;-66
2021/11/10 02:15:21;;;;;;;;;61.75;47.50;;;;;5.79;78.84;101532.56;5015995;28;45350;-66
2021/11/10 02:17:56;;;;;;;;;62.50;48.75;;;;;5.73;77.48;101516.94;5015128;28;45475;-66
2021/11/10 02:20:23;;;;;;;;;64.00;46.50;;;;;5.78;78.05;101520.38;5015306;27;48025;-67
2021/11/10 02:22:51;;;;;;;;;60.00;48.75;;;;;5.75;78.77;101512.56;5015053;28;45411;-66
2021/11/10 02:25:16;;;;;;;;;62.75;49.00;;;;;5.76;78.90;101514.31;5015745;28;45558;-65
2021/11/10 02:27:42;;;;;;;;;58.25;47.25;;;;;5.75;78.97;101520.41;5016354;28;45350;-65
2021/11/10 02:30:15;;;;;;;;;62.75;49.25;;;;;5.75;78.49;101523.00;5018428;28;46493;-66
2021/11/10 02:32:53;;;;;;;;;63.50;48.00;;;;;5.74;79.02;101516.91;5015577;28;45347;-65
2021/11/10 02:35:22;;;;;;;;;57.25;45.25;;;;;5.72;78.96;101505.59;5015153;28;45519;-66
2021/11/10 02:38:06;;;;;;;;;60.75;44.50;;;;;5.73;79.09;101498.66;5016947;28;45569;-66
2021/11/10 02:40:32;;;;;;;;;62.25;49.25;;;;;5.72;79.32;101499.53;5015764;28;45016;-63
2021/11/10 02:42:59;;;;;;;;;60.25;47.25;;;;;5.72;79.42;101494.31;5015978;28;45321;-66
2021/11/10 02:45:31;;;;;;;;;69.25;53.00;;;;;5.72;79.44;101487.31;5016552;28;45377;-66
2021/11/10 02:47:57;;;;;;;;;67.75;51.25;;;;;5.71;79.12;101493.44;5019823;28;45346;-65
2021/11/10 02:50:28;;;;;;;;;63.00;50.25;;;;;5.68;79.63;101493.44;5019671;28;46300;-66
2021/11/10 02:52:53;;;;;;;;;65.75;51.50;;;;;5.68;79.04;101490.84;5014527;28;45377;-67
2021/11/10 02:55:19;;;;;;;;;62.00;48.50;;;;;5.65;79.81;101483.91;5014734;28;45199;-65
2021/11/10 02:57:44;;;;;;;;;63.50;48.50;;;;;5.66;79.71;101497.81;5014691;28;45580;-65
2021/11/10 03:00:13;;;;;;;;;60.75;48.25;;;;;5.64;79.51;101492.59;5028479;28;48597;-65
2021/11/10 03:02:38;;;;;;;;;63.50;49.00;;;;;5.62;79.06;101483.91;5014687;28;45312;-65
2021/11/10 03:05:05;;;;;;;;;61.75;50.75;;;;;5.49;79.52;101467.44;5016207;28;45518;-65
2021/11/10 03:07:31;;;;;;;;;65.25;51.00;;;;;5.59;79.94;101489.16;5015994;28;45504;-64
2021/11/10 03:09:56;;;;;;;;;60.50;48.75;;;;;5.57;79.77;101488.28;5018839;28;45977;-66
2021/11/10 03:12:22;;;;;;;;;63.75;51.25;;;;;5.58;79.67;101494.38;5016182;28;45702;-65
2021/11/10 03:14:48;;;;;;;;;65.00;49.50;;;;;5.58;80.00;101483.94;5016307;28;45294;-63
2021/11/10 03:17:16;;;;;;;;;66.25;51.25;;;;;5.56;80.11;101473.50;5015692;27;45186;-65
2021/11/10 03:19:42;;;;;;;;;67.75;52.00;;;;;5.50;79.85;101471.78;5014905;28;46320;-64
2021/11/10 03:22:09;;;;;;;;;62.25;51.00;;;;;5.52;80.01;101480.47;5015335;28;45329;-65
2021/11/10 03:24:35;;;;;;;;;61.25;50.25;;;;;5.54;79.83;101485.69;5013760;28;45194;-65
2021/11/10 03:27:01;;;;;;;;;61.75;48.00;;;;;5.48;80.38;101475.28;5019323;28;45492;-65
2021/11/10 03:29:27;;;;;;;;;62.50;46.75;;;;;5.53;79.79;101494.41;5020036;28;46348;-66
2021/11/10 03:31:52;;;;;;;;;63.25;48.25;;;;;5.51;80.36;101485.72;5015655;28;45250;-65
2021/11/10 03:34:20;;;;;;;;;59.75;46.75;;;;;5.51;80.15;101483.09;5016559;28;45856;-64
2021/11/10 03:36:46;;;;;;;;;61.50;48.50;;;;;5.50;80.28;101489.19;5015155;28;45439;-65
2021/11/10 03:39:14;;;;;;;;;57.75;46.75;;;;;5.49;80.22;101495.28;5014546;28;46523;-65
2021/11/10 03:41:40;;;;;;;;;58.50;45.25;;;;;5.48;80.30;101509.22;5014001;28;45291;-64
2021/11/10 03:44:06;;;;;;;;;57.75;46.25;;;;;5.40;80.07;101494.47;5014014;28;45225;-65
2021/11/10 03:46:32;;;;;;;;;58.25;48.00;;;;;5.47;80.15;101494.44;5016143;28;45206;-64
2021/11/10 03:48:58;;;;;;;;;60.00;47.25;;;;;5.44;80.26;101495.28;5015422;28;46492;-65
2021/11/10 03:51:23;;;;;;;;;59.75;48.25;;;;;5.41;80.07;101492.69;5016484;28;45238;-65
2021/11/10 03:53:49;;;;;;;;;58.00;44.00;;;;;5.37;80.42;101488.38;5017497;28;45225;-65
2021/11/10 03:56:15;;;;;;;;;59.00;47.00;;;;;5.30;79.77;101477.09;5015862;28;45456;-66
2021/11/10 03:58:42;;;;;;;;;56.25;44.25;;;;;5.37;80.01;101496.19;5016989;28;46498;-65
2021/11/10 04:01:08;;;;;;;;;62.25;47.50;;;;;5.36;79.72;101491.84;5014471;28;45394;-64
2021/11/10 04:03:35;;;;;;;;;55.50;46.25;;;;;5.32;80.22;101493.63;5013043;27;45418;-67
2021/11/10 04:06:01;;;;;;;;;53.25;44.00;;;;;5.25;79.59;101507.53;5014350;28;45508;-64
2021/11/10 04:08:26;;;;;;;;;63.50;47.25;;;;;5.25;80.20;101523.19;5012877;28;46177;-65
2021/11/10 04:10:52;;;;;;;;;59.00;46.25;;;;;5.25;79.88;101531.00;5013512;28;45358;-64
2021/11/10 04:13:17;;;;;;;;;59.25;44.25;;;;;5.21;79.98;101550.16;5013589;28;45258;-66
2021/11/10 04:15:43;;;;;;;;;59.75;45.75;;;;;5.23;80.03;101579.72;5013476;28;45258;-64
2021/11/10 04:18:10;;;;;;;;;58.75;46.25;;;;;5.14;79.85;101562.34;5013138;28;45183;-65
2021/11/10 04:20:36;;;;;;;;;62.25;48.50;;;;;5.09;79.65;101551.06;5014427;28;45665;-67
2021/11/10 04:23:01;;;;;;;;;59.50;48.50;;;;;5.14;79.98;101559.75;5014826;28;45390;-65
2021/11/10 04:25:27;;;;;;;;;57.75;46.75;;;;;5.10;79.60;101573.66;5013762;28;45633;-66
2021/11/10 04:27:53;;;;;;;;;59.25;48.00;;;;;5.07;79.89;101564.09;5012773;28;46153;-65
2021/11/10 04:30:19;;;;;;;;;63.00;48.25;;;;;5.01;79.96;101548.44;5013073;28;45495;-65
2021/11/10 04:32:45;;;;;;;;;62.50;48.50;;;;;5.00;79.92;101557.13;5013088;28;45352;-65
2021/11/10 04:35:13;;;;;;;;;62.25;48.75;;;;;4.97;80.00;101549.31;5013269;28;45311;-62
2021/11/10 04:37:39;;;;;;;;;62.25;48.00;;;;;4.88;79.62;101534.56;5013117;28;46071;-62
2021/11/10 04:40:08;;;;;;;;;69.50;47.00;;;;;4.95;80.07;101546.72;5014106;28;45393;-63
2021/11/10 04:42:33;;;;;;;;;65.50;48.50;;;;;4.91;80.47;101542.41;5012224;28;45445;-62
2021/11/10 04:45:05;;;;;;;;;61.00;48.00;;;;;4.91;80.30;101541.50;5018959;28;45304;-64
2021/11/10 04:47:33;;;;;;;;;60.25;46.50;;;;;4.90;80.40;101535.44;5020493;27;45417;-63
2021/11/10 04:49:59;;;;;;;;;60.25;48.75;;;;;4.65;80.45;101493.72;5017643;28;45433;-64
2021/11/10 04:52:25;;;;;;;;;60.00;46.00;;;;;4.88;80.82;101544.13;5017302;28;45155;-66
2021/11/10 04:54:51;;;;;;;;;61.50;47.00;;;;;4.87;80.59;101553.69;5018434;28;45585;-66
2021/11/10 04:57:17;;;;;;;;;55.75;43.00;;;;;4.86;80.48;101544.13;5019684;28;45261;-66
2021/11/10 04:59:42;;;;;;;;;58.00;45.50;;;;;4.83;80.72;101539.78;5015859;28;45483;-63
2021/11/10 05:04:37;;;;;;;;;54.75;43.25;;;;;4.85;81.23;101515.44;5016324;28;45439;-62
2021/11/10 05:07:03;;;;;;;;;52.75;42.75;;;;;4.84;81.11;101498.94;5013863;28;46653;-62
2021/11/10 05:09:29;;;;;;;;;55.00;43.25;;;;;4.79;81.56;101501.56;5021557;28;45264;-63
2021/11/10 05:11:55;;;;;;;;;51.50;42.75;;;;;4.77;80.56;101495.47;5026568;28;45312;-63
2021/11/10 05:14:20;;;;;;;;;49.25;38.75;;;;;4.75;80.54;101488.50;5015521;28;45482;-64
2021/11/10 05:16:46;;;;;;;;;52.00;41.75;;;;;4.76;81.17;101501.56;5013698;28;45290;-63
2021/11/10 05:19:11;;;;;;;;;49.25;37.50;;;;;4.72;80.91;101494.63;5011532;28;45276;-65
2021/11/10 05:21:37;;;;;;;;;55.00;42.50;;;;;4.74;80.99;101498.09;5012956;28;45273;-67
2021/11/10 05:24:03;;;;;;;;;56.50;42.75;;;;;4.72;81.35;101489.41;5015900;28;45314;-64
2021/11/10 05:26:30;;;;;;;;;46.50;39.50;;;;;4.70;81.51;101487.66;5016089;28;45968;-66
2021/11/10 05:28:56;;;;;;;;;55.00;44.75;;;;;4.67;81.54;101486.78;5015519;28;45313;-66
2021/11/10 05:31:21;;;;;;;;;53.50;41.75;;;;;4.67;81.72;101478.97;5014154;28;45333;-70
2021/11/10 05:33:47;;;;;;;;;55.75;44.25;;;;;4.62;82.02;101461.63;5016166;28;45174;-66
2021/11/10 05:36:12;;;;;;;;;59.50;46.00;;;;;4.62;81.56;101472.88;5016142;28;45354;-65
2021/11/10 05:38:38;;;;;;;;;48.50;41.25;;;;;4.65;81.77;101466.81;5017070;28;45320;-66
2021/11/10 05:41:03;;;;;;;;;58.50;47.00;;;;;4.63;81.48;101466.81;5016748;28;45648;-64
2021/11/10 05:43:29;;;;;;;;;57.00;46.50;;;;;4.63;81.82;101469.41;5016341;28;45319;-65
2021/11/10 05:45:54;;;;;;;;;45.00;36.75;;;;;4.60;81.71;101461.59;5016217;28;46291;-64
2021/11/10 05:48:19;;;;;;;;;61.00;46.50;;;;;4.60;81.85;101458.16;5015157;28;45687;-64
2021/11/10 05:50:45;;;;;;;;;59.00;45.25;;;;;4.66;82.65;101471.16;5015368;28;45786;-64
2021/11/10 05:53:12;;;;;;;;;53.75;44.25;;;;;4.64;82.49;101460.72;5015534;28;45188;-62
2021/11/10 05:55:40;;;;;;;;;61.00;45.00;;;;;4.61;81.92;101452.06;4997661;28;47110;-64
2021/11/10 05:58:05;;;;;;;;;59.25;44.00;;;;;4.67;82.01;101458.13;5015995;28;45389;-63
2021/11/10 06:00:31;;;;;;;;;56.25;43.00;;;;;4.63;82.53;101460.75;5015706;28;45369;-65
2021/11/10 06:02:56;;;;;;;;;57.50;45.25;;;;;4.58;82.68;101462.50;5017034;28;45441;-66
2021/11/10 06:05:22;;;;;;;;;50.50;41.50;;;;;4.70;82.52;101475.50;5015561;27;47347;-65
2021/11/10 06:07:49;;;;;;;;;58.00;45.25;;;;;4.75;82.62;101481.56;5015094;28;45243;-64
2021/11/10 06:10:16;;;;;;;;;55.25;43.25;;;;;4.74;82.65;101482.44;5015258;28;45323;-65
2021/11/10 06:12:42;;;;;;;;;55.25;43.00;;;;;4.80;82.53;101500.69;5015769;28;45245;-62
2021/11/10 06:15:08;;;;;;;;;57.00;44.50;;;;;4.83;82.73;101518.94;5015819;28;46227;-65
2021/11/10 06:17:34;;;;;;;;;56.00;43.00;;;;;4.87;82.88;101529.34;5015255;28;45290;-65
2021/11/10 06:20:02;;;;;;;;;58.50;47.75;;;;;4.81;82.92;101514.59;5016273;28;45312;-64
2021/11/10 06:22:27;;;;;;;;;59.00;48.75;;;;;4.94;83.01;101531.06;5018366;28;45576;-66
2021/11/10 06:24:52;;;;;;;;;57.75;45.00;;;;;4.95;83.15;101536.31;5018370;28;47483;-64
2021/11/10 06:27:18;;;;;;;;;52.00;40.75;;;;;5.02;82.20;101536.28;5016433;28;45328;-65
2021/11/10 06:29:44;;;;;;;;;56.25;43.50;;;;;5.04;82.36;101532.78;5016058;28;45528;-64
2021/11/10 06:32:09;;;;;;;;;60.25;46.00;;;;;5.04;82.21;101537.16;5018065;28;45490;-65
2021/11/10 06:34:35;;;;;;;;;59.25;47.50;;;;;4.99;82.13;101531.94;5014265;28;46034;-64
2021/11/10 06:37:01;;;;;;;;;57.00;43.75;;;;;4.78;81.80;101506.78;5017054;28;45253;-63
2021/11/10 06:39:27;;;;;;;;;55.25;41.50;;;;;5.06;82.17;101546.69;5015155;28;45483;-64
2021/11/10 06:41:52;;;;;;;;;54.50;43.25;;;;;5.04;82.11;101551.06;5014242;28;45470;-65
2021/11/10 06:44:18;;;;;;;;;58.25;44.25;;;;;5.09;82.34;101564.94;5016180;28;45819;-64
2021/11/10 06:46:43;;;;;;;;;56.00;42.25;;;;;5.09;82.30;101567.56;5014433;28;45483;-65
2021/11/10 06:49:08;;;;;;;;;53.25;42.25;;;;;5.14;81.99;101584.94;5014416;28;45296;-65
2021/11/10 06:51:34;;;;;;;;;51.50;41.50;;;;;5.10;81.40;101591.91;5014293;28;45208;-63
2021/11/10 06:53:59;;;;;;;;;61.00;44.00;;;;;5.12;82.01;101596.25;5013519;28;45475;-62
2021/11/10 06:56:24;;;;;;;;;50.75;42.00;;;;;5.11;81.72;101602.31;5014057;28;45600;-65
2021/11/10 06:58:50;;;;;;;;;55.00;43.00;;;;;5.07;82.15;101594.53;5014404;28;45341;-64
2021/11/10 07:01:16;;;;;;;;;61.25;46.00;;;;;5.11;82.94;101606.69;5014681;28;45292;-65
2021/11/10 07:03:42;;;;;;;;;58.50;45.75;;;;;5.20;81.89;101621.44;5014388;28;47336;-62
2021/11/10 07:06:07;;;;;;;;;60.50;47.50;;;;;5.20;82.07;101622.34;5014483;28;45438;-64
2021/11/10 07:08:33;;;;;;;;;58.00;46.00;;;;;5.19;81.63;101622.31;5014281;28;45374;-64
2021/11/10 07:10:58;;;;;;;;;56.25;42.00;;;;;5.13;81.39;101612.78;5014402;28;45485;-63
2021/11/10 07:13:24;;;;;;;;;55.50;43.25;;;;;5.11;81.29;101617.97;5013898;28;45435;-68
2021/11/10 07:15:49;;;;;;;;;55.25;44.75;;;;;5.10;81.59;101613.63;5014592;28;45341;-65
2021/11/10 07:18:15;;;;;;;;;54.75;44.75;;;;;5.06;81.11;101592.78;5017142;28;45256;-64
2021/11/10 07:20:41;;;;;;;;;57.50;43.50;;;;;5.06;81.22;101608.44;5017291;28;45432;-65
2021/11/10 07:23:07;;;;;;;;;59.50;47.25;;;;;5.04;80.65;101608.41;5013660;28;46238;-66
2021/11/10 07:25:32;;;;;;;;;61.25;48.25;;;;;5.03;81.07;101592.78;5014114;28;45246;-66
2021/11/10 07:27:58;;;;;;;;;64.50;50.75;;;;;5.01;81.22;101590.16;5017399;28;45200;-66
2021/11/10 07:30:24;;;;;;;;;58.75;48.00;;;;;5.03;81.51;101592.78;5018935;28;45215;-65
2021/11/10 07:32:50;;;;;;;;;63.00;49.00;;;;;5.07;81.22;101607.56;5014320;28;46131;-67
2021/11/10 07:35:15;;;;;;;;;59.75;47.50;;;;;5.02;81.19;101591.06;5013710;28;45357;-66
2021/11/10 07:37:42;;;;;;;;;59.50;46.50;;;;;5.04;80.98;101590.16;5014007;28;45332;-66
2021/11/10 07:40:09;;;;;;;;;63.00;47.50;;;;;5.10;81.02;101589.31;5014030;28;45407;-67
2021/11/10 07:42:35;;;;;;;;;60.50;47.25;;;;;5.11;81.37;101584.06;5014091;28;46193;-64
2021/11/10 07:45:09;;;;;;;;;60.75;48.25;;;;;5.14;80.92;101585.81;5017718;28;45250;-65
2021/11/10 07:47:41;;;;;;;;;62.00;48.00;;;;;5.20;81.32;101579.72;5015744;27;45372;-64
2021/11/10 07:50:23;;;;;;;;;62.50;48.00;;;;;5.21;81.23;101569.28;5013820;28;45452;-65
2021/11/10 07:52:50;;;;;;;;;55.50;43.50;;;;;5.28;81.20;101572.75;5013954;28;47146;-63
2021/11/10 07:55:16;;;;;;;;;56.25;44.00;;;;;5.29;80.48;101578.84;5015007;28;45456;-66
2021/11/10 07:57:42;;;;;;;;;56.00;46.75;;;;;5.28;80.89;101577.97;5015136;28;45399;-64
2021/11/10 08:00:14;;;;;;;;;61.75;48.00;;;;;5.28;81.09;101575.34;5014838;28;45345;-67
2021/11/10 08:02:40;;;;;;;;;62.50;47.25;;;;;5.29;81.37;101565.78;5014128;28;46085;-64
2021/11/10 08:05:07;;;;;;;;;63.75;49.00;;;;;5.37;80.75;101561.41;4995953;28;45427;-66
2021/11/10 08:07:34;;;;;;;;;62.25;49.25;;;;;5.37;80.48;101575.34;5013221;28;45431;-64
2021/11/10 08:09:59;;;;;;;;;60.50;46.00;;;;;5.42;80.36;101583.16;5013980;28;45402;-64
2021/11/10 08:12:26;;;;;;;;;62.50;49.00;;;;;5.46;80.72;101597.06;5013593;28;45368;-66
2021/11/10 08:14:51;;;;;;;;;59.75;46.75;;;;;5.48;81.48;101582.28;5013753;28;45403;-68
2021/11/10 08:17:17;;;;;;;;;60.75;48.00;;;;;5.55;81.21;101594.44;5013948;28;45403;-64
2021/11/10 08:19:42;;;;;;;;;61.75;46.75;;;;;5.60;80.78;101590.06;5014208;28;45484;-65
2021/11/10 08:22:08;;;;;;;;;63.00;49.25;;;;;5.69;80.87;101595.25;5013775;28;45175;-67
2021/11/10 08:24:33;;;;;;;;;62.00;47.25;;;;;5.74;80.26;101602.22;5014723;28;45216;-67
2021/11/10 08:26:59;;;;;;;;;63.75;48.75;;;;;5.79;80.67;101597.84;5014089;28;45311;-66
2021/11/10 08:29:24;;;;;;;;;60.00;48.00;;;;;5.80;80.63;101589.13;5013183;28;45500;-67
2021/11/10 08:31:51;;;;;;;;;65.25;50.50;;;;;5.87;80.46;101598.66;5014614;28;45925;-65
2021/11/10 08:34:17;;;;;;;;;68.75;50.50;;;;;5.95;80.09;101609.09;5014821;28;45462;-67
2021/11/10 08:36:42;;;;;;;;;62.00;49.25;;;;;5.99;79.67;101614.28;5014828;28;45294;-68
2021/11/10 08:39:08;;;;;;;;;64.00;50.25;;;;;6.03;79.76;101609.06;5014840;28;45428;-68
2021/11/10 08:41:33;;;;;;;;;60.75;49.00;;;;;6.04;79.18;101601.25;5014614;28;45891;-68
2021/11/10 08:43:59;;;;;;;;;55.50;43.25;;;;;6.13;78.98;101606.44;5013877;28;45429;-66
2021/11/10 08:46:26;;;;;;;;;65.00;49.50;;;;;6.17;78.88;101615.09;5013657;28;45342;-66
2021/11/10 08:48:53;;;;;;;;;57.25;44.50;;;;;6.21;79.06;101618.59;5013745;28;45533;-67
2021/11/10 08:51:19;;;;;;;;;62.00;48.25;;;;;6.24;78.79;101616.81;5013443;28;45295;-67
2021/11/10 08:53:46;;;;;;;;;64.50;49.75;;;;;6.28;78.50;101604.59;5016899;28;45442;-68
2021/11/10 08:56:12;;;;;;;;;65.25;49.25;;;;;6.35;79.11;101602.81;5015605;28;45444;-68
2021/11/10 08:58:38;;;;;;;;;64.25;50.50;;;;;6.41;78.51;101600.19;5017959;28;45331;-68
2021/11/10 09:01:04;;;;;;;;;66.00;50.00;;;;;6.48;78.86;101609.72;5017261;28;45410;-67
2021/11/10 09:03:30;;;;;;;;;67.00;51.00;;;;;6.52;78.11;101606.19;5019463;28;45334;-67
2021/11/10 09:05:56;;;;;;;;;63.50;50.50;;;;;6.66;79.04;101618.31;5018919;27;45331;-67
2021/11/10 09:08:25;;;;;;;;;66.00;52.00;;;;;6.66;78.21;101594.78;5017138;28;45352;-68
2021/11/10 09:10:50;;;;;;;;;66.75;49.00;;;;;6.77;77.82;101606.03;5016900;28;46219;-65
2021/11/10 09:13:16;;;;;;;;;68.25;53.00;;;;;6.85;77.67;101614.66;5017119;28;45365;-67
2021/11/10 09:15:41;;;;;;;;;66.33;50.33;;;;;6.87;76.99;101623.38;5018972;28;45308;-69
2021/11/10 09:18:07;;;;;;;;;66.33;52.67;;;;;6.85;76.53;101609.44;5020840;28;45319;-67
2021/11/10 09:20:34;;;;;;;;;70.33;55.67;;;;;6.90;75.80;101598.97;5016630;28;46251;-67
2021/11/10 09:23:02;;;;;;;;;71.67;57.00;;;;;6.94;76.46;101592.81;5015302;28;45360;-67
2021/11/10 09:25:29;;;;;;;;;74.00;56.67;;;;;6.99;76.36;101590.16;5015496;28;45231;-65
2021/11/10 09:27:56;;;;;;;;;68.33;55.00;;;;;7.00;75.51;101584.03;5015268;28;45275;-65
2021/11/10 09:30:23;;;;;;;;;72.67;57.67;;;;;7.03;75.88;101586.63;5017035;28;46096;-66
2021/11/10 09:32:51;;;;;;;;;74.67;59.00;;;;;7.05;75.48;101590.09;5017847;28;45444;-64
2021/11/10 09:35:18;;;;;;;;;74.00;57.00;;;;;7.08;75.36;101582.19;5019546;28;45309;-66
2021/11/10 09:37:44;;;;;;;;;73.33;56.00;;;;;7.14;75.65;101582.16;5016942;28;45192;-66
2021/11/10 09:40:13;;;;;;;;;76.33;63.33;;;;;7.20;75.09;101577.72;5017192;28;45318;-65
2021/11/10 09:42:41;;;;;;;;;71.67;54.33;;;;;7.20;74.60;101585.59;5015758;28;45396;-66
2021/11/10 09:45:08;;;;;;;;;77.33;64.00;;;;;7.22;74.32;101599.53;5015641;28;45305;-64
2021/11/10 09:47:37;;;;;;;;;74.00;62.33;;;;;7.22;74.21;101589.94;5014179;28;45492;-66
2021/11/10 09:50:04;;;;;;;;;72.67;56.00;;;;;7.26;74.15;101596.00;5014130;28;45379;-65
2021/11/10 09:52:30;;;;;;;;;78.00;64.00;;;;;7.29;73.79;101607.31;5016322;28;45320;-70
2021/11/10 09:54:55;;;;;;;;;75.33;61.00;;;;;7.35;74.39;101602.91;5017470;28;45393;-66
2021/11/10 09:57:21;;;;;;;;;78.00;63.00;;;;;7.43;74.11;101620.28;5018959;28;45237;-66
2021/11/10 09:59:47;;;;;;;;;72.67;57.00;;;;;7.43;74.18;101622.88;5014287;27;48389;-66
2021/11/10 10:02:14;;;;;;;;;75.67;57.67;;;;;7.55;73.82;101629.72;5015132;28;45280;-66
2021/11/10 10:04:41;;;;;;;;;73.33;57.00;;;;;7.60;73.31;101629.69;5015006;28;45186;-66
2021/11/10 10:07:08;;;;;;;;;73.67;58.33;;;;;7.56;73.59;101620.13;5014814;28;45520;-65
2021/11/10 10:09:34;;;;;;;;;76.67;62.67;;;;;7.69;73.20;101637.44;5014137;28;46231;-66
2021/11/10 10:11:59;;;;;;;;;73.67;58.00;;;;;7.74;73.35;101642.63;5014503;28;45232;-65
2021/11/10 10:14:25;;;;;;;;;78.67;62.00;;;;;7.79;73.34;101635.56;5013222;28;45304;-65
2021/11/10 10:16:50;;;;;;;;;72.33;56.67;;;;;7.87;72.60;101641.59;5015538;28;45442;-64
2021/11/10 10:19:16;;;;;;;;;72.00;55.33;;;;;7.93;72.68;101650.25;5014966;28;46003;-66
2021/11/10 10:21:44;;;;;;;;;74.33;56.00;;;;;7.96;73.08;101645.00;5014563;28;45358;-65
2021/11/10 10:24:12;;;;;;;;;71.00;53.67;;;;;8.01;72.17;101646.66;5014436;28;45414;-66
2021/11/10 10:26:37;;;;;;;;;74.67;57.00;;;;;8.05;72.08;101644.91;5013570;28;45497;-63
2021/11/10 10:29:10;;;;;;;;;74.00;56.00;;;;;8.09;72.25;101635.22;5014412;28;45327;-63
2021/11/10 10:31:38;;;;;;;;;74.67;59.00;;;;;8.14;71.94;101634.28;5014440;28;45437;-66
2021/11/10 10:34:09;;;;;;;;;75.00;61.33;;;;;8.20;72.38;101622.84;5014294;28;45339;-65
2021/11/10 10:36:41;;;;;;;;;75.33;59.00;;;;;8.27;72.13;101623.63;5014374;28;45244;-66
2021/11/10 10:39:14;;;;;;;;;79.00;64.00;;;;;8.36;71.79;101614.75;5014190;28;46039;-64
2021/11/10 10:41:48;;;;;;;;;84.00;66.00;;;;;8.44;72.33;101605.91;5014169;27;45430;-66
2021/11/10 10:44:19;;;;;;;;;76.67;62.00;;;;;8.52;71.53;101608.47;5015487;28;45409;-69
2021/11/10 10:46:59;;;;;;;;;81.33;66.00;;;;;8.59;71.50;101603.97;5014969;28;45443;-66
2021/11/10 10:49:32;;;;;;;;;77.00;59.67;;;;;8.70;71.38;101603.81;5014318;28;45477;-64
2021/11/10 10:52:18;;;;;;;;;77.67;65.33;;;;;8.78;71.21;101591.44;5014223;28;45447;-66
2021/11/10 10:54:46;;;;;;;;;73.33;59.33;;;;;8.62;70.75;101546.22;5014291;28;45340;-66
2021/11/10 10:57:14;;;;;;;;;75.00;63.00;;;;;8.93;70.64;101581.56;5014849;28;45361;-68
2021/11/10 10:59:39;;;;;;;;;72.33;55.67;;;;;9.02;70.50;101578.78;5015728;28;46095;-64
2021/11/10 11:02:07;;;;;;;;;67.75;52.50;;;;;9.11;69.97;101578.63;5015425;28;45599;-66
2021/11/10 11:04:34;;;;;;;;;70.67;57.00;;;;;9.21;69.71;101577.56;5017180;28;45394;-67
2021/11/10 11:07:17;;;;;;;;;63.25;51.00;;;;;9.30;69.56;101573.91;5015901;28;45472;-66
2021/11/10 11:09:45;;;;;;;;;70.00;54.25;;;;;9.34;68.86;101578.22;5015096;28;45342;-66
2021/11/10 11:12:34;;;;;;;;;70.67;53.00;;;;;9.40;68.62;101579.00;5015753;28;45248;-65
2021/11/10 11:15:07;;;;;;;;;70.50;53.50;;;;;9.51;68.49;101563.88;5015386;28;45252;-66
2021/11/10 11:17:39;;;;;;;;;70.33;55.33;;;;;9.62;68.01;101564.53;5014814;28;45541;-66